createdAt,value
2022-12-12T00:00:30.747Z,46.25
2022-12-12T00:01:30.746Z,46.73
2022-12-12T00:02:30.902Z,47.86
2022-12-12T00:03:30.910Z,46.57
2022-12-12T00:04:30.714Z,46.89
2022-12-12T00:05:30.704Z,45.92
2022-12-12T00:06:30.705Z,46.25
2022-12-12T00:07:30.707Z,45.92
2022-12-12T00:08:30.823Z,46.25
2022-12-12T00:09:30.675Z,46.73
2022-12-12T00:10:30.675Z,48.50
2022-12-12T00:11:30.677Z,47.21
2022-12-12T00:12:30.658Z,46.41
2022-12-12T00:13:30.670Z,46.41
2022-12-12T00:14:30.658Z,46.41
2022-12-12T00:15:30.655Z,46.41
2022-12-12T00:16:30.638Z,46.41
2022-12-12T00:17:30.629Z,46.73
2022-12-12T00:18:30.631Z,46.57
2022-12-12T00:19:30.626Z,46.41
2022-12-12T00:20:30.620Z,46.25
2022-12-12T00:21:30.598Z,46.08
2022-12-12T00:22:30.606Z,46.57
2022-12-12T00:23:30.611Z,46.25
2022-12-12T00:24:30.597Z,46.41
2022-12-12T00:25:30.582Z,47.37
2022-12-12T00:26:30.583Z,46.57
2022-12-12T00:27:30.586Z,46.57
2022-12-12T00:28:30.563Z,46.73
2022-12-12T00:29:30.583Z,46.25
2022-12-12T00:30:30.551Z,46.57
2022-12-12T00:31:30.627Z,46.25
2022-12-12T00:32:30.537Z,46.57
2022-12-12T00:33:30.529Z,46.41
2022-12-12T00:34:30.524Z,46.25
2022-12-12T00:35:30.511Z,46.25
2022-12-12T00:36:30.515Z,46.25
2022-12-12T00:37:30.494Z,45.92
2022-12-12T00:38:30.508Z,46.41
2022-12-12T00:39:30.487Z,47.21
2022-12-12T00:40:30.489Z,46.08
2022-12-12T00:41:30.473Z,46.25
2022-12-12T00:42:30.458Z,46.41
2022-12-12T00:43:30.458Z,46.08
2022-12-12T00:44:30.495Z,46.57
2022-12-12T00:45:30.450Z,46.25
2022-12-12T00:46:30.467Z,46.08
2022-12-12T00:47:30.444Z,46.73
2022-12-12T00:48:30.440Z,46.57
2022-12-12T00:49:30.422Z,47.21
2022-12-12T00:50:30.428Z,46.08
2022-12-12T00:51:30.415Z,46.25
2022-12-12T00:52:30.398Z,46.73
2022-12-12T00:53:30.412Z,46.41
2022-12-12T00:54:30.403Z,46.73
2022-12-12T00:55:30.406Z,45.76
2022-12-12T00:56:30.383Z,46.25
2022-12-12T00:57:30.383Z,46.08
2022-12-12T00:58:30.370Z,46.25
2022-12-12T00:59:30.359Z,46.08
2022-12-12T01:00:30.371Z,45.92
2022-12-12T01:01:30.404Z,46.25
2022-12-12T01:02:30.406Z,46.73
2022-12-12T01:03:30.347Z,46.08
2022-12-12T01:04:30.323Z,46.25
2022-12-12T01:05:30.328Z,46.25
2022-12-12T01:06:30.319Z,46.41
2022-12-12T01:07:30.322Z,46.41
2022-12-12T01:08:30.376Z,46.25
2022-12-12T01:09:30.299Z,46.57
2022-12-12T01:10:30.280Z,46.25
2022-12-12T01:11:31.287Z,46.25
2022-12-12T01:12:30.292Z,48.18
2022-12-12T01:13:31.268Z,46.25
2022-12-12T01:14:30.262Z,46.08
2022-12-12T01:15:30.258Z,46.41
2022-12-12T01:16:30.297Z,46.25
2022-12-12T01:17:30.248Z,48.50
2022-12-12T01:18:30.231Z,46.73
2022-12-12T01:19:30.229Z,46.08
2022-12-12T01:20:30.206Z,47.05
2022-12-12T01:21:30.223Z,46.25
2022-12-12T01:22:30.217Z,46.73
2022-12-12T01:23:30.195Z,46.25
2022-12-12T01:24:30.208Z,46.41
2022-12-12T01:25:30.187Z,46.41
2022-12-12T01:26:30.169Z,45.60
2022-12-12T01:27:31.182Z,46.57
2022-12-12T01:28:30.165Z,46.25
2022-12-12T01:29:30.163Z,46.41
2022-12-12T01:30:30.178Z,46.25
2022-12-12T01:31:30.187Z,47.37
2022-12-12T01:32:30.139Z,46.41
2022-12-12T01:33:30.145Z,46.25
2022-12-12T01:34:30.136Z,46.08
2022-12-12T01:35:30.134Z,46.41
2022-12-12T01:36:30.131Z,46.41
2022-12-12T01:37:30.105Z,46.41
2022-12-12T01:38:30.116Z,46.89
2022-12-12T01:39:30.103Z,46.25
2022-12-12T01:40:30.109Z,46.41
2022-12-12T01:41:30.091Z,47.53
2022-12-12T01:42:30.089Z,46.41
2022-12-12T01:43:30.068Z,45.76
2022-12-12T01:44:30.066Z,46.73
2022-12-12T01:45:30.074Z,46.57
2022-12-12T01:46:30.086Z,46.41
2022-12-12T01:47:30.063Z,47.37
2022-12-12T01:48:30.039Z,46.41
2022-12-12T01:49:30.033Z,47.21
2022-12-12T01:50:30.041Z,46.25
2022-12-12T01:51:30.036Z,45.76
2022-12-12T01:52:30.025Z,46.73
2022-12-12T01:53:30.010Z,46.41
2022-12-12T01:54:30.008Z,46.25
2022-12-12T01:55:29.997Z,45.92
2022-12-12T01:56:30.006Z,46.57
2022-12-12T01:57:30.000Z,46.25
2022-12-12T01:58:29.987Z,46.08
2022-12-12T01:59:29.962Z,46.57
2022-12-12T02:00:30.025Z,46.89
2022-12-12T02:01:29.964Z,46.25
2022-12-12T02:02:29.999Z,46.25
2022-12-12T02:03:29.954Z,45.92
2022-12-12T02:04:29.955Z,46.08
2022-12-12T02:05:29.938Z,46.57
2022-12-12T02:06:29.940Z,46.25
2022-12-12T02:07:29.926Z,45.92
2022-12-12T02:08:29.954Z,46.41
2022-12-12T02:09:29.915Z,46.08
2022-12-12T02:10:29.915Z,45.92
2022-12-12T02:11:29.896Z,46.57
2022-12-12T02:12:29.883Z,46.41
2022-12-12T02:13:29.892Z,46.08
2022-12-12T02:14:29.882Z,46.41
2022-12-12T02:15:29.874Z,46.25
2022-12-12T02:16:29.904Z,46.41
2022-12-12T02:17:29.855Z,45.92
2022-12-12T02:18:29.843Z,46.25
2022-12-12T02:19:29.863Z,46.08
2022-12-12T02:20:29.835Z,45.92
2022-12-12T02:21:29.835Z,46.25
2022-12-12T02:22:29.830Z,46.25
2022-12-12T02:23:29.816Z,46.73
2022-12-12T02:24:29.822Z,46.08
2022-12-12T02:25:29.812Z,46.41
2022-12-12T02:26:29.798Z,46.08
2022-12-12T02:27:29.797Z,46.41
2022-12-12T02:28:29.779Z,46.41
2022-12-12T02:29:29.778Z,46.57
2022-12-12T02:30:29.778Z,46.08
2022-12-12T02:31:29.789Z,46.41
2022-12-12T02:32:29.758Z,46.08
2022-12-12T02:33:29.742Z,46.41
2022-12-12T02:34:29.748Z,46.41
2022-12-12T02:35:29.756Z,45.92
2022-12-12T02:36:29.727Z,45.92
2022-12-12T02:37:29.726Z,46.25
2022-12-12T02:38:29.719Z,45.60
2022-12-12T02:39:29.714Z,47.05
2022-12-12T02:40:29.710Z,47.21
2022-12-12T02:41:29.698Z,46.89
2022-12-12T02:42:29.713Z,46.41
2022-12-12T02:43:29.691Z,46.89
2022-12-12T02:44:29.683Z,46.57
2022-12-12T02:45:29.679Z,46.89
2022-12-12T02:46:29.707Z,46.57
2022-12-12T02:47:29.663Z,47.21
2022-12-12T02:48:29.683Z,46.89
2022-12-12T02:49:29.630Z,46.08
2022-12-12T02:50:30.643Z,45.92
2022-12-12T02:51:29.642Z,47.21
2022-12-12T02:52:29.626Z,47.37
2022-12-12T02:53:29.622Z,46.89
2022-12-12T02:54:29.609Z,46.08
2022-12-12T02:55:32.566Z,45.60
2022-12-12T02:56:31.618Z,45.92
2022-12-12T02:57:29.611Z,45.92
2022-12-12T02:58:29.577Z,48.02
2022-12-12T02:59:29.581Z,46.73
2022-12-12T03:00:29.587Z,46.25
2022-12-12T03:01:29.559Z,46.41
2022-12-12T03:02:29.571Z,45.92
2022-12-12T03:03:29.554Z,46.73
2022-12-12T03:04:29.538Z,46.89
2022-12-12T03:05:29.542Z,46.89
2022-12-12T03:06:29.538Z,45.60
2022-12-12T03:07:29.546Z,46.25
2022-12-12T03:08:29.570Z,46.41
2022-12-12T03:09:29.515Z,46.25
2022-12-12T03:10:29.507Z,46.89
2022-12-12T03:11:29.503Z,46.08
2022-12-12T03:12:29.502Z,46.73
2022-12-12T03:13:29.490Z,46.41
2022-12-12T03:14:29.474Z,45.92
2022-12-12T03:15:29.474Z,46.41
2022-12-12T03:16:29.615Z,46.57
2022-12-12T03:17:29.458Z,46.41
2022-12-12T03:18:29.454Z,46.57
2022-12-12T03:19:29.462Z,46.73
2022-12-12T03:20:29.440Z,46.89
2022-12-12T03:21:29.431Z,47.05
2022-12-12T03:22:29.431Z,48.66
2022-12-12T03:23:29.424Z,47.86
2022-12-12T03:24:29.415Z,48.82
2022-12-12T03:25:29.419Z,48.02
2022-12-12T03:26:29.404Z,48.18
2022-12-12T03:27:29.397Z,49.15
2022-12-12T03:28:29.400Z,47.21
2022-12-12T03:29:29.380Z,48.98
2022-12-12T03:30:29.376Z,48.82
2022-12-12T03:31:29.381Z,47.70
2022-12-12T03:32:29.354Z,47.86
2022-12-12T03:33:29.354Z,47.05
2022-12-12T03:34:29.335Z,46.25
2022-12-12T03:35:29.335Z,46.73
2022-12-12T03:36:29.339Z,47.37
2022-12-12T03:37:29.330Z,48.18
2022-12-12T03:38:29.311Z,47.37
2022-12-12T03:39:29.307Z,48.18
2022-12-12T03:40:29.291Z,47.86
2022-12-12T03:41:29.301Z,48.02
2022-12-12T03:42:29.286Z,48.66
2022-12-12T03:43:29.279Z,48.18
2022-12-12T03:44:29.274Z,47.37
2022-12-12T03:45:29.322Z,47.70
2022-12-12T03:46:29.274Z,48.50
2022-12-12T03:47:29.254Z,47.70
2022-12-12T03:48:29.251Z,47.53
2022-12-12T03:49:29.229Z,50.11
2022-12-12T03:50:29.240Z,48.50
2022-12-12T03:51:29.242Z,48.66
2022-12-12T03:52:29.219Z,48.50
2022-12-12T03:53:29.213Z,46.57
2022-12-12T03:54:29.195Z,49.15
2022-12-12T03:55:29.201Z,49.31
2022-12-12T03:56:29.184Z,50.43
2022-12-12T03:57:29.197Z,49.15
2022-12-12T03:58:30.162Z,48.98
2022-12-12T03:59:29.151Z,49.63
2022-12-12T04:00:29.165Z,47.86
2022-12-12T04:01:29.191Z,51.56
2022-12-12T04:02:29.215Z,48.66
2022-12-12T04:03:29.150Z,48.50
2022-12-12T04:04:29.147Z,50.92
2022-12-12T04:05:29.132Z,52.53
2022-12-12T04:06:29.135Z,51.24
2022-12-12T04:07:29.115Z,50.43
2022-12-12T04:08:29.231Z,49.31
2022-12-12T04:09:29.111Z,49.31
2022-12-12T04:10:29.100Z,51.88
2022-12-12T04:11:29.082Z,51.08
2022-12-12T04:12:29.082Z,50.92
2022-12-12T04:13:32.278Z,49.47
2022-12-12T04:14:30.062Z,48.34
2022-12-12T04:15:29.055Z,52.37
2022-12-12T04:16:29.108Z,51.24
2022-12-12T04:17:29.043Z,51.88
2022-12-12T04:18:29.047Z,50.11
2022-12-12T04:19:29.046Z,51.24
2022-12-12T04:20:29.025Z,51.24
2022-12-12T04:21:29.026Z,52.21
2022-12-12T04:22:29.019Z,51.08
2022-12-12T04:23:29.002Z,50.76
2022-12-12T04:24:29.013Z,51.56
2022-12-12T04:25:28.999Z,49.63
2022-12-12T04:26:28.992Z,52.37
2022-12-12T04:27:28.981Z,52.85
2022-12-12T04:28:28.973Z,52.05
2022-12-12T04:29:28.986Z,53.50
2022-12-12T04:30:28.950Z,51.56
2022-12-12T04:31:28.974Z,50.92
2022-12-12T04:32:28.953Z,50.27
2022-12-12T04:33:28.941Z,51.56
2022-12-12T04:34:29.003Z,50.60
2022-12-12T04:35:28.929Z,51.24
2022-12-12T04:36:28.916Z,51.24
2022-12-12T04:37:28.916Z,49.31
2022-12-12T04:38:28.899Z,50.43
2022-12-12T04:39:28.971Z,51.88
2022-12-12T04:40:28.893Z,53.98
2022-12-12T04:41:28.882Z,54.79
2022-12-12T04:42:28.866Z,54.79
2022-12-12T04:43:28.872Z,52.53
2022-12-12T04:44:28.885Z,50.92
2022-12-12T04:45:28.912Z,51.56
2022-12-12T04:46:28.853Z,52.21
2022-12-12T04:47:28.837Z,52.85
2022-12-12T04:48:28.834Z,53.50
2022-12-12T04:49:28.832Z,52.69
2022-12-12T04:50:28.890Z,51.72
2022-12-12T04:51:28.813Z,53.33
2022-12-12T04:52:28.806Z,52.21
2022-12-12T04:53:28.804Z,52.21
2022-12-12T04:54:28.798Z,52.05
2022-12-12T04:55:28.795Z,55.11
2022-12-12T04:56:28.799Z,53.01
2022-12-12T04:57:28.790Z,53.50
2022-12-12T04:58:28.765Z,52.21
2022-12-12T04:59:28.767Z,53.82
2022-12-12T05:00:28.752Z,54.79
2022-12-12T05:01:28.834Z,52.53
2022-12-12T05:02:28.846Z,54.79
2022-12-12T05:03:28.725Z,54.46
2022-12-12T05:04:29.734Z,54.30
2022-12-12T05:05:28.721Z,54.14
2022-12-12T05:06:28.725Z,53.98
2022-12-12T05:07:28.714Z,54.95
2022-12-12T05:08:28.797Z,53.66
2022-12-12T05:09:28.702Z,54.14
2022-12-12T05:10:28.685Z,54.95
2022-12-12T05:11:28.691Z,55.27
2022-12-12T05:12:28.696Z,55.91
2022-12-12T05:13:28.678Z,53.98
2022-12-12T05:14:28.670Z,54.30
2022-12-12T05:15:28.665Z,54.95
2022-12-12T05:16:28.663Z,52.37
2022-12-12T05:17:28.663Z,53.82
2022-12-12T05:18:28.641Z,54.95
2022-12-12T05:19:28.638Z,56.07
2022-12-12T05:20:28.630Z,55.27
2022-12-12T05:21:28.619Z,55.91
2022-12-12T05:22:28.635Z,54.30
2022-12-12T05:23:34.347Z,54.14
2022-12-12T05:24:30.602Z,55.75
2022-12-12T05:25:28.598Z,54.46
2022-12-12T05:26:28.603Z,54.79
2022-12-12T05:27:28.602Z,55.43
2022-12-12T05:28:28.591Z,54.95
2022-12-12T05:29:28.571Z,53.98
2022-12-12T05:30:28.617Z,54.62
2022-12-12T05:31:28.565Z,53.50
2022-12-12T05:32:28.550Z,55.75
2022-12-12T05:33:28.561Z,53.98
2022-12-12T05:34:28.528Z,54.30
2022-12-12T05:35:28.526Z,54.95
2022-12-12T05:36:28.529Z,53.17
2022-12-12T05:37:28.513Z,53.33
2022-12-12T05:38:28.526Z,53.82
2022-12-12T05:39:28.538Z,54.95
2022-12-12T05:40:28.496Z,53.17
2022-12-12T05:41:28.495Z,54.46
2022-12-12T05:42:28.495Z,55.75
2022-12-12T05:43:28.484Z,54.30
2022-12-12T05:44:28.488Z,53.82
2022-12-12T05:45:28.477Z,54.79
2022-12-12T05:46:28.520Z,55.11
2022-12-12T05:47:28.468Z,55.59
2022-12-12T05:48:28.451Z,54.95
2022-12-12T05:49:28.442Z,53.33
2022-12-12T05:50:28.455Z,55.59
2022-12-12T05:51:28.428Z,56.07
2022-12-12T05:52:28.413Z,54.79
2022-12-12T05:53:28.413Z,55.27
2022-12-12T05:54:28.409Z,56.40
2022-12-12T05:55:28.418Z,55.75
2022-12-12T05:56:28.393Z,55.75
2022-12-12T05:57:28.387Z,54.14
2022-12-12T05:58:28.378Z,55.59
2022-12-12T05:59:28.375Z,54.79
2022-12-12T06:00:28.374Z,55.11
2022-12-12T06:01:28.387Z,55.27
2022-12-12T06:02:28.431Z,53.17
2022-12-12T06:03:28.353Z,56.72
2022-12-12T06:04:28.424Z,56.24
2022-12-12T06:05:28.336Z,55.27
2022-12-12T06:06:28.342Z,52.21
2022-12-12T06:07:28.330Z,56.40
2022-12-12T06:08:28.364Z,56.40
2022-12-12T06:09:28.313Z,55.11
2022-12-12T06:10:28.305Z,55.75
2022-12-12T06:11:28.318Z,55.43
2022-12-12T06:12:28.296Z,53.17
2022-12-12T06:13:28.288Z,55.11
2022-12-12T06:14:28.283Z,55.43
2022-12-12T06:15:28.326Z,54.95
2022-12-12T06:16:28.293Z,56.56
2022-12-12T06:17:32.970Z,55.75
2022-12-12T06:18:30.292Z,56.56
2022-12-12T06:19:28.257Z,54.79
2022-12-12T06:20:28.254Z,55.75
2022-12-12T06:21:28.251Z,56.07
2022-12-12T06:22:28.245Z,55.75
2022-12-12T06:23:28.230Z,56.56
2022-12-12T06:24:28.221Z,56.40
2022-12-12T06:25:28.221Z,57.36
2022-12-12T06:26:28.214Z,56.88
2022-12-12T06:27:28.213Z,52.21
2022-12-12T06:28:28.205Z,53.33
2022-12-12T06:29:28.194Z,55.75
2022-12-12T06:30:28.200Z,55.11
2022-12-12T06:31:28.253Z,53.01
2022-12-12T06:32:28.180Z,53.33
2022-12-12T06:33:28.169Z,54.30
2022-12-12T06:34:28.165Z,56.07
2022-12-12T06:35:29.160Z,54.62
2022-12-12T06:36:28.239Z,56.40
2022-12-12T06:37:28.149Z,54.46
2022-12-12T06:38:28.164Z,56.07
2022-12-12T06:39:28.122Z,53.82
2022-12-12T06:40:28.132Z,55.59
2022-12-12T06:41:28.129Z,54.46
2022-12-12T06:42:28.119Z,54.30
2022-12-12T06:43:28.124Z,55.91
2022-12-12T06:44:28.113Z,54.62
2022-12-12T06:45:28.103Z,54.62
2022-12-12T06:46:28.154Z,55.91
2022-12-12T06:47:28.085Z,54.62
2022-12-12T06:48:28.106Z,56.40
2022-12-12T06:49:28.101Z,57.85
2022-12-12T06:50:28.077Z,57.36
2022-12-12T06:51:28.073Z,56.88
2022-12-12T06:52:28.058Z,56.40
2022-12-12T06:53:28.074Z,57.69
2022-12-12T06:54:28.045Z,58.17
2022-12-12T06:55:28.043Z,57.04
2022-12-12T06:56:28.033Z,57.85
2022-12-12T06:57:28.022Z,56.88
2022-12-12T06:58:28.059Z,58.01
2022-12-12T06:59:28.028Z,59.30
2022-12-12T07:00:28.029Z,58.65
2022-12-12T07:01:28.101Z,57.69
2022-12-12T07:02:30.230Z,57.52
2022-12-12T07:03:28.985Z,55.27
2022-12-12T07:04:27.987Z,56.40
2022-12-12T07:05:27.998Z,55.43
2022-12-12T07:06:27.975Z,56.72
2022-12-12T07:07:27.965Z,56.56
2022-12-12T07:08:28.013Z,56.24
2022-12-12T07:09:27.954Z,56.72
2022-12-12T07:10:27.944Z,57.04
2022-12-12T07:11:28.509Z,57.36
2022-12-12T07:12:27.942Z,56.40
2022-12-12T07:13:27.933Z,56.56
2022-12-12T07:14:27.930Z,56.88
2022-12-12T07:15:27.922Z,56.40
2022-12-12T07:16:27.950Z,56.07
2022-12-12T07:17:27.916Z,54.30
2022-12-12T07:18:27.907Z,53.82
2022-12-12T07:19:27.901Z,54.95
2022-12-12T07:20:27.901Z,55.27
2022-12-12T07:21:27.906Z,53.33
2022-12-12T07:22:27.906Z,55.91
2022-12-12T07:23:27.930Z,55.91
2022-12-12T07:24:27.877Z,58.97
2022-12-12T07:25:27.914Z,58.17
2022-12-12T07:26:27.873Z,57.36
2022-12-12T07:27:27.857Z,56.88
2022-12-12T07:28:27.848Z,56.40
2022-12-12T07:29:27.841Z,56.07
2022-12-12T07:30:27.853Z,56.88
2022-12-12T07:31:27.885Z,55.59
2022-12-12T07:32:27.825Z,56.07
2022-12-12T07:33:39.574Z,56.40
2022-12-12T07:34:29.809Z,55.59
2022-12-12T07:35:27.802Z,55.59
2022-12-12T07:36:27.813Z,55.43
2022-12-12T07:37:27.788Z,56.56
2022-12-12T07:38:27.808Z,56.88
2022-12-12T07:39:27.782Z,56.72
2022-12-12T07:40:27.782Z,58.33
2022-12-12T07:41:27.792Z,57.52
2022-12-12T07:42:27.760Z,56.24
2022-12-12T07:43:27.762Z,56.88
2022-12-12T07:44:27.767Z,56.72
2022-12-12T07:45:27.770Z,56.56
2022-12-12T07:46:27.842Z,56.88
2022-12-12T07:47:27.741Z,56.88
2022-12-12T07:48:27.733Z,57.69
2022-12-12T07:49:27.730Z,56.88
2022-12-12T07:50:27.721Z,58.33
2022-12-12T07:51:27.716Z,58.01
2022-12-12T07:52:27.733Z,56.40
2022-12-12T07:53:27.707Z,55.43
2022-12-12T07:54:27.701Z,57.52
2022-12-12T07:55:27.692Z,57.36
2022-12-12T07:56:27.688Z,56.07
2022-12-12T07:57:27.701Z,57.52
2022-12-12T07:58:27.673Z,58.01
2022-12-12T07:59:27.668Z,58.65
2022-12-12T08:00:27.782Z,58.49
2022-12-12T08:01:27.695Z,59.62
2022-12-12T08:02:27.651Z,57.85
2022-12-12T08:03:27.659Z,57.20
2022-12-12T08:04:27.700Z,57.20
2022-12-12T08:05:27.628Z,56.88
2022-12-12T08:06:27.660Z,56.56
2022-12-12T08:07:27.632Z,53.50
2022-12-12T08:08:27.681Z,56.40
2022-12-12T08:09:27.587Z,55.75
2022-12-12T08:10:27.651Z,57.69
2022-12-12T08:11:27.586Z,57.04
2022-12-12T08:12:27.577Z,55.91
2022-12-12T08:13:27.579Z,55.91
2022-12-12T08:14:27.588Z,58.97
2022-12-12T08:15:27.553Z,57.36
2022-12-12T08:16:27.635Z,56.56
2022-12-12T08:17:27.532Z,55.91
2022-12-12T08:18:27.540Z,58.17
2022-12-12T08:19:27.547Z,57.04
2022-12-12T08:20:27.523Z,57.85
2022-12-12T08:21:27.516Z,53.82
2022-12-12T08:22:27.530Z,54.30
2022-12-12T08:23:27.507Z,54.30
2022-12-12T08:24:27.498Z,54.46
2022-12-12T08:25:27.500Z,57.20
2022-12-12T08:26:27.489Z,53.98
2022-12-12T08:27:27.473Z,53.17
2022-12-12T08:28:27.461Z,55.11
2022-12-12T08:29:27.476Z,55.59
2022-12-12T08:30:27.464Z,58.01
2022-12-12T08:31:27.548Z,56.24
2022-12-12T08:32:27.427Z,55.91
2022-12-12T08:33:27.440Z,54.79
2022-12-12T08:34:27.438Z,55.91
2022-12-12T08:35:27.445Z,56.07
2022-12-12T08:36:27.416Z,55.27
2022-12-12T08:37:27.409Z,54.62
2022-12-12T08:38:27.402Z,54.14
2022-12-12T08:39:27.388Z,54.46
2022-12-12T08:40:27.420Z,52.69
2022-12-12T08:41:27.381Z,53.82
2022-12-12T08:42:27.379Z,52.85
2022-12-12T08:43:27.371Z,52.53
2022-12-12T08:44:27.352Z,53.66
2022-12-12T08:45:27.354Z,53.66
2022-12-12T08:46:27.394Z,51.40
2022-12-12T08:47:27.354Z,49.63
2022-12-12T08:48:27.339Z,50.92
2022-12-12T08:49:27.344Z,52.53
2022-12-12T08:50:27.433Z,55.75
2022-12-12T08:51:27.327Z,54.62
2022-12-12T08:52:27.336Z,51.56
2022-12-12T08:53:27.318Z,51.56
2022-12-12T08:54:27.305Z,52.37
2022-12-12T08:55:27.300Z,52.53
2022-12-12T08:56:27.305Z,53.50
2022-12-12T08:57:27.297Z,54.30
2022-12-12T08:58:27.283Z,52.85
2022-12-12T08:59:27.291Z,52.85
2022-12-12T09:00:27.263Z,53.82
2022-12-12T09:01:27.287Z,53.01
2022-12-12T09:02:27.424Z,53.01
2022-12-12T09:03:29.469Z,53.98
2022-12-12T09:04:28.267Z,54.62
2022-12-12T09:05:27.225Z,53.98
2022-12-12T09:06:28.276Z,54.79
2022-12-12T09:07:27.219Z,54.79
2022-12-12T09:08:27.241Z,53.17
2022-12-12T09:09:27.232Z,51.72
2022-12-12T09:10:27.195Z,53.33
2022-12-12T09:11:27.198Z,54.62
2022-12-12T09:12:27.156Z,54.14
2022-12-12T09:13:27.166Z,53.66
2022-12-12T09:14:27.178Z,52.69
2022-12-12T09:15:27.167Z,51.88
2022-12-12T09:16:27.211Z,54.14
2022-12-12T09:17:27.144Z,54.14
2022-12-12T09:18:27.140Z,53.82
2022-12-12T09:19:27.132Z,53.82
2022-12-12T09:20:27.152Z,54.30
2022-12-12T09:21:27.122Z,53.98
2022-12-12T09:22:27.115Z,53.82
2022-12-12T09:23:27.116Z,53.66
2022-12-12T09:24:27.104Z,52.05
2022-12-12T09:25:27.103Z,54.30
2022-12-12T09:26:27.109Z,53.98
2022-12-12T09:27:27.078Z,52.85
2022-12-12T09:28:27.074Z,53.98
2022-12-12T09:29:27.069Z,53.82
2022-12-12T09:30:27.063Z,53.50
2022-12-12T09:31:27.122Z,52.53
2022-12-12T09:32:27.065Z,50.27
2022-12-12T09:33:27.044Z,55.27
2022-12-12T09:34:27.080Z,55.91
2022-12-12T09:35:27.040Z,56.07
2022-12-12T09:36:27.046Z,55.91
2022-12-12T09:37:27.048Z,54.30
2022-12-12T09:38:27.019Z,55.11
2022-12-12T09:39:27.008Z,54.30
2022-12-12T09:40:26.999Z,52.69
2022-12-12T09:41:26.992Z,54.46
2022-12-12T09:42:27.008Z,54.62
2022-12-12T09:43:29.634Z,53.33
2022-12-12T09:44:27.980Z,53.66
2022-12-12T09:45:27.004Z,55.59
2022-12-12T09:46:26.955Z,55.75
2022-12-12T09:47:26.972Z,54.14
2022-12-12T09:48:26.966Z,54.62
2022-12-12T09:49:26.942Z,53.98
2022-12-12T09:50:26.952Z,54.30
2022-12-12T09:51:26.931Z,53.50
2022-12-12T09:52:30.970Z,53.17
2022-12-12T09:53:27.928Z,52.05
2022-12-12T09:54:26.908Z,54.62
2022-12-12T09:55:26.919Z,55.27
2022-12-12T09:56:26.892Z,54.30
2022-12-12T09:57:26.892Z,55.27
2022-12-12T09:58:26.947Z,51.72
2022-12-12T09:59:26.891Z,53.33
2022-12-12T10:00:26.869Z,54.14
2022-12-12T10:01:26.938Z,54.62
2022-12-12T10:02:26.912Z,54.62
2022-12-12T10:03:26.851Z,53.66
2022-12-12T10:04:26.833Z,54.30
2022-12-12T10:05:26.856Z,56.07
2022-12-12T10:06:42.188Z,54.79
2022-12-12T10:07:28.807Z,55.75
2022-12-12T10:08:26.901Z,55.91
2022-12-12T10:09:26.827Z,55.11
2022-12-12T10:10:26.792Z,55.59
2022-12-12T10:11:26.804Z,54.30
2022-12-12T10:12:26.797Z,54.62
2022-12-12T10:13:26.783Z,52.69
2022-12-12T10:14:26.780Z,54.46
2022-12-12T10:15:26.789Z,54.30
2022-12-12T10:16:26.802Z,53.82
2022-12-12T10:17:26.774Z,53.98
2022-12-12T10:18:26.759Z,54.30
2022-12-12T10:19:26.739Z,54.14
2022-12-12T10:20:26.733Z,52.21
2022-12-12T10:21:26.727Z,54.62
2022-12-12T10:22:26.721Z,54.79
2022-12-12T10:23:26.731Z,54.46
2022-12-12T10:24:26.699Z,53.50
2022-12-12T10:25:26.699Z,54.79
2022-12-12T10:26:26.796Z,53.50
2022-12-12T10:27:26.678Z,54.30
2022-12-12T10:28:26.704Z,55.27
2022-12-12T10:29:26.672Z,54.14
2022-12-12T10:30:26.660Z,55.11
2022-12-12T10:31:26.672Z,54.46
2022-12-12T10:32:26.660Z,53.82
2022-12-12T10:33:26.679Z,55.11
2022-12-12T10:34:26.649Z,54.95
2022-12-12T10:35:27.111Z,54.79
2022-12-12T10:36:27.625Z,54.95
2022-12-12T10:37:26.615Z,55.27
2022-12-12T10:38:26.608Z,53.82
2022-12-12T10:39:26.625Z,51.88
2022-12-12T10:40:26.603Z,54.62
2022-12-12T10:41:26.588Z,54.30
2022-12-12T10:42:26.596Z,54.30
2022-12-12T10:43:26.571Z,56.07
2022-12-12T10:44:26.579Z,54.95
2022-12-12T10:45:26.620Z,55.59
2022-12-12T10:46:26.662Z,53.33
2022-12-12T10:47:26.555Z,53.66
2022-12-12T10:48:26.545Z,53.50
2022-12-12T10:49:26.542Z,55.11
2022-12-12T10:50:26.528Z,56.88
2022-12-12T10:51:26.520Z,55.27
2022-12-12T10:52:26.539Z,53.66
2022-12-12T10:53:26.508Z,53.50
2022-12-12T10:54:26.504Z,54.46
2022-12-12T10:55:26.496Z,54.14
2022-12-12T10:56:26.488Z,54.62
2022-12-12T10:57:26.479Z,53.50
2022-12-12T10:58:26.504Z,54.95
2022-12-12T10:59:26.487Z,54.62
2022-12-12T11:00:26.486Z,53.98
2022-12-12T11:01:52.151Z,54.30
2022-12-12T11:02:28.561Z,54.46
2022-12-12T11:03:26.534Z,53.50
2022-12-12T11:04:26.444Z,52.85
2022-12-12T11:05:26.443Z,53.17
2022-12-12T11:06:26.424Z,53.66
2022-12-12T11:07:26.418Z,52.53
2022-12-12T11:08:26.487Z,53.17
2022-12-12T11:09:26.420Z,55.59
2022-12-12T11:10:30.600Z,54.14
2022-12-12T11:11:28.387Z,54.14
2022-12-12T11:12:26.379Z,54.79
2022-12-12T11:13:26.372Z,54.46
2022-12-12T11:14:26.370Z,53.98
2022-12-12T11:15:26.377Z,54.95
2022-12-12T11:16:26.405Z,55.11
2022-12-12T11:17:26.351Z,53.82
2022-12-12T11:18:26.346Z,53.01
2022-12-12T11:19:26.338Z,54.30
2022-12-12T11:20:26.341Z,54.79
2022-12-12T11:21:26.322Z,54.79
2022-12-12T11:22:26.310Z,54.14
2022-12-12T11:23:26.307Z,54.30
2022-12-12T11:24:26.308Z,55.43
2022-12-12T11:25:26.311Z,55.75
2022-12-12T11:26:26.297Z,54.14
2022-12-12T11:27:26.283Z,53.50
2022-12-12T11:28:26.280Z,54.30
2022-12-12T11:29:26.278Z,56.72
2022-12-12T11:30:26.281Z,56.56
2022-12-12T11:31:26.323Z,53.50
2022-12-12T11:32:26.273Z,54.79
2022-12-12T11:33:26.257Z,54.62
2022-12-12T11:34:26.250Z,56.07
2022-12-12T11:35:26.238Z,54.14
2022-12-12T11:36:26.223Z,55.27
2022-12-12T11:37:26.230Z,54.79
2022-12-12T11:38:26.223Z,54.30
2022-12-12T11:39:26.208Z,56.40
2022-12-12T11:40:26.230Z,53.98
2022-12-12T11:41:26.194Z,55.27
2022-12-12T11:42:26.190Z,55.11
2022-12-12T11:43:26.191Z,53.82
2022-12-12T11:44:26.199Z,54.95
2022-12-12T11:45:26.195Z,56.07
2022-12-12T11:46:26.168Z,54.30
2022-12-12T11:47:26.153Z,54.62
2022-12-12T11:48:26.155Z,54.30
2022-12-12T11:49:26.146Z,55.43
2022-12-12T11:50:26.147Z,53.82
2022-12-12T11:51:26.139Z,53.50
2022-12-12T11:52:26.147Z,54.46
2022-12-12T11:53:26.119Z,53.50
2022-12-12T11:54:26.115Z,52.69
2022-12-12T11:55:26.143Z,54.62
2022-12-12T11:56:26.099Z,53.50
2022-12-12T11:57:27.091Z,54.62
2022-12-12T11:58:26.087Z,55.11
2022-12-12T11:59:26.084Z,53.82
2022-12-12T12:00:26.071Z,55.43
2022-12-12T12:01:26.105Z,53.33
2022-12-12T12:02:26.055Z,55.43
2022-12-12T12:03:26.128Z,54.14
2022-12-12T12:04:26.109Z,56.07
2022-12-12T12:05:26.039Z,55.43
2022-12-12T12:06:26.043Z,54.79
2022-12-12T12:07:26.147Z,55.75
2022-12-12T12:08:26.100Z,54.46
2022-12-12T12:09:26.016Z,56.56
2022-12-12T12:10:26.267Z,54.14
2022-12-12T12:11:26.991Z,53.50
2022-12-12T12:12:26.011Z,54.46
2022-12-12T12:13:25.995Z,54.62
2022-12-12T12:14:25.982Z,53.17
2022-12-12T12:15:25.975Z,56.24
2022-12-12T12:16:26.040Z,54.95
2022-12-12T12:17:25.971Z,54.62
2022-12-12T12:18:28.318Z,54.79
2022-12-12T12:19:26.964Z,56.88
2022-12-12T12:20:25.956Z,54.79
2022-12-12T12:21:25.935Z,54.79
2022-12-12T12:22:25.927Z,56.40
2022-12-12T12:23:25.915Z,55.11
2022-12-12T12:24:25.916Z,55.91
2022-12-12T12:25:25.918Z,55.59
2022-12-12T12:26:25.891Z,54.30
2022-12-12T12:27:25.905Z,53.82
2022-12-12T12:28:25.902Z,54.79
2022-12-12T12:29:25.906Z,55.91
2022-12-12T12:30:25.914Z,56.07
2022-12-12T12:31:25.870Z,55.59
2022-12-12T12:32:25.858Z,54.46
2022-12-12T12:33:25.854Z,55.59
2022-12-12T12:34:25.860Z,55.91
2022-12-12T12:35:26.842Z,55.59
2022-12-12T12:36:25.825Z,55.43
2022-12-12T12:37:25.826Z,54.46
2022-12-12T12:38:25.832Z,55.91
2022-12-12T12:39:25.829Z,56.24
2022-12-12T12:40:25.811Z,54.95
2022-12-12T12:41:25.803Z,55.75
2022-12-12T12:42:25.770Z,54.62
2022-12-12T12:43:25.787Z,56.07
2022-12-12T12:44:25.803Z,54.79
2022-12-12T12:45:25.766Z,56.07
2022-12-12T12:46:25.828Z,56.24
2022-12-12T12:47:25.767Z,56.72
2022-12-12T12:48:25.754Z,54.62
2022-12-12T12:49:25.756Z,56.07
2022-12-12T12:50:25.818Z,55.11
2022-12-12T12:51:25.733Z,56.07
2022-12-12T12:52:25.751Z,53.82